createdAt,value
2017-07-09T00:01:19.205Z,68.10
2017-07-09T00:03:54.253Z,69.00
2017-07-09T00:06:28.796Z,69.20
2017-07-09T00:09:02.891Z,69.00
2017-07-09T00:11:36.931Z,71.40
2017-07-09T00:14:11.049Z,71.70
2017-07-09T00:16:45.297Z,73.00
2017-07-09T00:19:20.182Z,72.10
2017-07-09T00:21:54.772Z,72.10
2017-07-09T00:24:29.936Z,73.00
2017-07-09T00:27:03.997Z,73.00
2017-07-09T00:29:39.205Z,74.30
2017-07-09T00:32:13.445Z,74.10
2017-07-09T00:34:48.093Z,73.90
2017-07-09T00:37:23.060Z,74.80
2017-07-09T00:39:57.958Z,75.50
2017-07-09T00:42:32.906Z,75.20
2017-07-09T00:45:07.526Z,73.30
2017-07-09T00:50:21.908Z,74.60
2017-07-09T00:52:55.936Z,73.00
2017-07-09T00:55:30.214Z,74.10
2017-07-09T00:58:05.150Z,75.50
2017-07-09T01:00:39.721Z,73.50
2017-07-09T01:03:14.515Z,73.60
2017-07-09T01:05:49.910Z,73.50
2017-07-09T01:08:24.324Z,73.50
2017-07-09T01:10:58.622Z,74.40
2017-07-09T01:13:32.854Z,72.80
2017-07-09T01:16:07.884Z,69.10
2017-07-09T01:18:42.674Z,69.70
2017-07-09T01:21:17.370Z,69.80
2017-07-09T01:23:51.290Z,70.20
2017-07-09T01:26:25.069Z,71.90
2017-07-09T01:28:58.777Z,71.90
2017-07-09T01:31:32.603Z,71.90
2017-07-09T01:34:07.576Z,69.40
2017-07-09T01:36:42.261Z,67.00
2017-07-09T01:39:16.445Z,66.50
2017-07-09T01:41:50.821Z,65.00
2017-07-09T01:44:25.779Z,66.50
2017-07-09T01:47:00.590Z,68.20
2017-07-09T01:49:36.363Z,69.00
2017-07-09T01:52:13.507Z,69.20
2017-07-09T01:54:48.436Z,68.80
2017-07-09T01:57:23.623Z,67.60
2017-07-09T02:00:01.391Z,67.70
2017-07-09T02:02:35.907Z,60.30
2017-07-09T02:05:10.565Z,64.00
2017-07-09T02:07:46.426Z,65.20
2017-07-09T02:10:22.649Z,65.80
2017-07-09T02:12:57.961Z,65.70
2017-07-09T02:15:33.924Z,67.70
2017-07-09T02:18:08.962Z,68.40
2017-07-09T02:20:44.388Z,67.10
2017-07-09T02:23:19.544Z,67.70
2017-07-09T02:25:55.227Z,67.90
2017-07-09T02:28:30.750Z,70.00
2017-07-09T02:31:05.666Z,67.90
2017-07-09T02:33:39.799Z,68.00
2017-07-09T02:36:14.664Z,68.10
2017-07-09T02:38:49.428Z,68.50
2017-07-09T02:41:23.846Z,68.10
2017-07-09T02:43:58.252Z,69.10
2017-07-09T02:46:32.170Z,68.70
2017-07-09T02:49:06.003Z,70.50
2017-07-09T02:51:39.866Z,71.70
2017-07-09T02:54:13.710Z,73.00
2017-07-09T02:56:47.659Z,74.60
2017-07-09T02:59:21.446Z,73.60
2017-07-09T03:01:55.258Z,72.20
2017-07-09T03:04:29.197Z,75.50
2017-07-09T03:07:03.680Z,75.40
2017-07-09T03:09:37.530Z,75.30
2017-07-09T03:12:11.288Z,76.70
2017-07-09T03:14:45.078Z,79.40
2017-07-09T03:17:18.873Z,79.30
2017-07-09T03:19:53.549Z,78.30
2017-07-09T03:22:27.267Z,78.10
2017-07-09T03:25:01.327Z,76.20
2017-07-09T03:27:35.346Z,75.60
2017-07-09T03:30:09.219Z,74.50
2017-07-09T03:32:43.113Z,76.20
2017-07-09T03:35:16.965Z,76.10
2017-07-09T03:37:50.746Z,76.60
2017-07-09T03:40:24.604Z,75.00
2017-07-09T03:42:58.324Z,74.60
2017-07-09T03:45:32.332Z,78.00
2017-07-09T03:48:06.218Z,76.80
2017-07-09T03:50:40.189Z,75.40
2017-07-09T03:53:13.890Z,74.10
2017-07-09T03:55:48.597Z,76.50
2017-07-09T03:58:23.418Z,78.80
2017-07-09T04:00:57.239Z,78.80
2017-07-09T04:03:30.941Z,77.90
2017-07-09T04:06:04.666Z,77.50
2017-07-09T04:08:40.464Z,76.00
2017-07-09T04:11:14.351Z,76.00
2017-07-09T04:13:48.142Z,76.10
2017-07-09T04:16:21.902Z,77.50
2017-07-09T04:18:55.782Z,77.60
2017-07-09T04:21:29.655Z,76.60
2017-07-09T04:24:03.667Z,75.00
2017-07-09T04:26:37.479Z,73.00
2017-07-09T04:29:11.320Z,72.80
2017-07-09T04:31:45.884Z,73.60
2017-07-09T04:34:19.575Z,73.50
2017-07-09T04:36:53.502Z,73.30
2017-07-09T04:39:28.459Z,74.70
2017-07-09T04:42:02.269Z,76.30
2017-07-09T04:44:36.198Z,78.00
2017-07-09T04:47:10.177Z,78.00
2017-07-09T04:49:44.142Z,77.30
2017-07-09T04:52:19.222Z,78.10
2017-07-09T04:54:53.047Z,78.00
2017-07-09T04:57:26.847Z,77.00
2017-07-09T05:00:00.751Z,76.10
2017-07-09T05:02:34.659Z,73.10
2017-07-09T05:05:08.532Z,71.20
2017-07-09T05:07:42.838Z,68.40
2017-07-09T05:10:17.370Z,64.60
2017-07-09T05:12:51.432Z,64.30
2017-07-09T05:15:25.966Z,63.90
2017-07-09T05:17:59.818Z,64.20
2017-07-09T05:20:34.363Z,62.30
2017-07-09T05:23:08.132Z,62.10
2017-07-09T05:25:42.006Z,61.70
2017-07-09T05:28:15.777Z,61.40
2017-07-09T05:30:49.503Z,62.30
2017-07-09T05:33:23.522Z,61.10
2017-07-09T05:35:57.278Z,59.50
2017-07-09T05:38:31.180Z,58.40
2017-07-09T05:41:04.846Z,57.90
2017-07-09T05:43:38.792Z,55.60
2017-07-09T05:46:12.542Z,55.80
2017-07-09T05:48:47.268Z,55.80
2017-07-09T05:51:21.359Z,55.80
2017-07-09T05:53:55.301Z,53.60
2017-07-09T05:56:29.774Z,52.80
2017-07-09T05:59:04.582Z,50.70
2017-07-09T06:01:43.146Z,50.50
2017-07-09T06:04:16.954Z,47.80
2017-07-09T06:06:51.489Z,45.60
2017-07-09T06:09:25.160Z,45.60
2017-07-09T06:11:59.703Z,47.40
2017-07-09T06:14:35.174Z,47.30
2017-07-09T06:17:09.087Z,46.20
2017-07-09T06:19:43.060Z,46.30
2017-07-09T06:22:16.902Z,48.10
2017-07-09T06:24:51.539Z,50.50
2017-07-09T06:27:25.237Z,50.50
2017-07-09T06:29:59.209Z,49.30
2017-07-09T06:32:33.083Z,48.30
2017-07-09T06:35:07.115Z,47.70
2017-07-09T06:37:40.868Z,47.90
2017-07-09T06:40:14.667Z,49.40
2017-07-09T08:39:05.166Z,84.20
2017-07-09T08:41:40.392Z,84.10
2017-07-09T08:44:14.138Z,81.80
2017-07-09T08:46:48.058Z,79.90
2017-07-09T08:49:22.692Z,79.30
2017-07-09T08:51:56.700Z,80.90
2017-07-09T08:54:31.123Z,79.70
2017-07-09T08:57:05.109Z,80.30
2017-07-09T08:59:39.653Z,81.90
2017-07-09T09:02:13.636Z,81.30
2017-07-09T09:04:47.508Z,80.70
2017-07-09T09:44:34.748Z,71.50
2017-07-09T09:47:15.414Z,71.00
2017-07-09T10:16:43.710Z,51.50
2017-07-09T10:19:18.027Z,49.90
2017-07-09T10:21:52.058Z,49.40
2017-07-09T10:24:25.842Z,47.50
2017-07-09T10:26:59.716Z,48.20
2017-07-09T10:29:33.470Z,47.20
2017-07-09T10:32:07.381Z,42.10
2017-07-09T10:34:41.167Z,39.60
2017-07-09T10:37:15.024Z,38.90
2017-07-09T10:39:48.762Z,39.90
2017-07-09T10:42:22.471Z,35.50
2017-07-09T10:44:56.283Z,30.80
2017-07-09T10:47:31.016Z,29.90
2017-07-09T10:50:15.973Z,29.90
2017-07-09T10:52:53.114Z,32.00
2017-07-09T10:55:27.520Z,29.60
2017-07-09T10:58:01.169Z,32.10
2017-07-09T11:00:34.957Z,31.30
2017-07-09T11:03:08.949Z,28.40
2017-07-09T11:05:42.739Z,28.80
2017-07-09T11:08:17.131Z,28.20
2017-07-09T11:10:51.002Z,28.20
2017-07-09T11:13:24.876Z,27.90
2017-07-09T11:15:58.571Z,27.90
2017-07-09T11:18:32.288Z,27.70
2017-07-09T11:21:06.054Z,28.90
2017-07-09T11:23:40.184Z,28.40
2017-07-09T11:26:14.053Z,32.60
2017-07-09T11:28:47.989Z,28.90
2017-07-09T11:31:21.687Z,30.30
2017-07-09T11:33:55.492Z,32.40
2017-07-09T11:36:29.351Z,33.40
2017-07-09T11:39:03.035Z,37.10
2017-07-09T11:41:36.848Z,40.80
2017-07-09T11:44:10.738Z,41.70
2017-07-09T11:46:44.517Z,42.90
2017-07-09T11:49:18.390Z,43.60
2017-07-09T11:51:52.475Z,42.20
2017-07-09T11:54:27.188Z,42.80
2017-07-09T11:57:01.066Z,42.70
2017-07-09T11:59:34.772Z,43.40
2017-07-09T12:02:08.664Z,42.10
2017-07-09T12:04:42.524Z,44.40
2017-07-09T12:07:16.808Z,45.60
2017-07-09T12:09:50.560Z,44.90
2017-07-09T12:12:24.591Z,45.40
2017-07-09T12:14:59.272Z,42.10
2017-07-09T12:17:33.210Z,42.00
2017-07-09T12:20:07.128Z,42.40
2017-07-09T12:22:41.672Z,40.00
2017-07-09T12:25:16.319Z,39.20
2017-07-09T12:27:50.895Z,37.80
2017-07-09T12:30:24.707Z,37.80
2017-07-09T12:32:58.771Z,37.80
2017-07-09T12:35:32.858Z,36.60
2017-07-09T12:38:06.805Z,34.70
2017-07-09T12:40:40.661Z,34.90
2017-07-09T12:43:14.516Z,32.00
2017-07-09T12:45:48.423Z,30.70
2017-07-09T12:48:22.461Z,30.10
2017-07-09T12:50:56.224Z,31.10
2017-07-09T12:53:30.299Z,32.10
2017-07-09T12:56:04.949Z,31.60
2017-07-09T12:58:38.820Z,31.60
2017-07-09T13:01:12.576Z,30.00
2017-07-09T13:03:46.551Z,33.20
2017-07-09T13:06:20.376Z,33.00
2017-07-09T13:08:54.487Z,31.20
2017-07-09T13:11:28.358Z,32.20
2017-07-09T13:14:03.017Z,31.90
2017-07-09T13:16:36.806Z,31.30
2017-07-09T13:19:10.798Z,30.20
2017-07-09T13:21:44.598Z,30.50
2017-07-09T13:24:18.503Z,29.80
2017-07-09T13:27:19.609Z,29.20
2017-07-09T13:29:53.596Z,29.70
2017-07-09T13:32:27.280Z,30.50
2017-07-09T13:35:01.276Z,29.60
2017-07-09T13:37:35.130Z,30.00
2017-07-09T13:40:09.015Z,31.40
2017-07-09T13:42:42.800Z,33.40
2017-07-09T13:45:22.045Z,32.80
2017-07-09T13:47:55.820Z,31.60
2017-07-09T13:50:29.637Z,37.10
2017-07-09T13:53:04.402Z,41.40
2017-07-09T13:55:38.109Z,41.40
2017-07-09T13:58:11.977Z,41.00
2017-07-09T14:00:45.819Z,41.30
2017-07-09T14:03:19.756Z,41.50
2017-07-09T14:05:53.450Z,38.60
2017-07-09T14:08:27.289Z,39.60
2017-07-09T14:11:01.200Z,39.60
2017-07-09T14:13:35.000Z,41.10
2017-07-09T14:16:09.153Z,40.90
2017-07-09T14:18:42.926Z,41.70
2017-07-09T14:21:16.645Z,42.30
2017-07-09T14:23:50.508Z,42.40
2017-07-09T14:26:24.385Z,43.10
2017-07-09T14:28:58.135Z,44.20
2017-07-09T14:31:31.898Z,43.60
2017-07-09T14:34:05.601Z,43.00
2017-07-09T14:36:39.502Z,44.20
2017-07-09T14:39:13.203Z,47.10
2017-07-09T14:41:47.169Z,47.70
2017-07-09T14:44:21.091Z,49.10
2017-07-09T14:46:54.857Z,50.10
2017-07-09T14:49:29.513Z,53.00
2017-07-09T14:52:03.200Z,52.90
2017-07-09T14:54:37.062Z,54.50
2017-07-09T14:57:11.089Z,53.80
2017-07-09T14:59:46.004Z,52.50
2017-07-09T15:02:19.997Z,51.90
2017-07-09T15:04:55.551Z,54.30
2017-07-09T15:07:30.391Z,64.40
2017-07-09T15:10:05.411Z,64.30
2017-07-09T15:12:39.255Z,66.30
2017-07-09T15:15:39.809Z,75.30
2017-07-09T15:25:00.149Z,82.60
